Peoria, Texas
Current Conditions -  °F | °C
As of 5:15 PM on Monday 22 Dec 2014 (Local Time) from KINJ Reporting Station
Clear Clear  
Wind Chill: 60°   Ceiling: Unl
Heat Index: 60°   Visibility: 10mi
Dew Point: 44°   Wind: 9mph
Humidity: 55%   Direction: 320°NW
Pressure: 29.62"   Gusts: NA
Location:  32.0499°N, 97.1039°W
Report Text: KINJ 222315Z AUTO 32008KT 10SM CLR 16/07 A2962 RMK AO2 T01570066
Loading
Personal Weather Stations






























Interactive Weather Map New forecast layout! Learn more

10-Day Weather Forecast

Advertisements
Track Severe Weather on mobile